createdAt,value
2019-04-07T00:00:44.401Z,13.10
2019-04-07T00:02:47.856Z,13.10
2019-04-07T00:04:51.324Z,13.00
2019-04-07T00:06:55.374Z,13.00
2019-04-07T00:08:58.355Z,13.00
2019-04-07T00:11:02.322Z,13.00
2019-04-07T00:13:05.341Z,12.90
2019-04-07T00:15:08.880Z,12.90
2019-04-07T00:17:12.331Z,12.90
2019-04-07T00:19:15.799Z,12.90
2019-04-07T00:21:19.289Z,12.90
2019-04-07T00:23:22.768Z,12.90
2019-04-07T00:25:26.279Z,12.90
2019-04-07T00:27:30.282Z,12.80
2019-04-07T00:29:33.488Z,12.80
2019-04-07T00:31:37.292Z,12.80
2019-04-07T00:33:40.360Z,12.80
2019-04-07T00:35:43.858Z,12.80
2019-04-07T00:37:47.304Z,12.70
2019-04-07T00:39:51.493Z,12.70
2019-04-07T00:41:54.292Z,12.70
2019-04-07T00:43:58.165Z,12.60
2019-04-07T00:46:01.335Z,12.60
2019-04-07T00:48:04.687Z,12.60
2019-04-07T00:50:08.754Z,12.60
2019-04-07T00:52:12.740Z,12.50
2019-04-07T00:54:16.065Z,12.40
2019-04-07T00:56:19.273Z,12.50
2019-04-07T00:58:22.667Z,12.40
2019-04-07T01:00:27.156Z,12.40
2019-04-07T01:02:31.093Z,12.30
2019-04-07T01:04:34.309Z,12.30
2019-04-07T01:06:37.604Z,12.30
2019-04-07T01:08:41.568Z,12.20
2019-04-07T01:10:44.577Z,12.20
2019-04-07T01:12:48.012Z,12.20
2019-04-07T01:14:51.450Z,12.20
2019-04-07T01:16:54.940Z,12.20
2019-04-07T01:18:59.135Z,12.20
2019-04-07T01:21:02.224Z,12.10
2019-04-07T01:23:05.500Z,12.10
2019-04-07T01:25:08.990Z,12.00
2019-04-07T01:27:13.110Z,12.00
2019-04-07T01:29:15.980Z,12.00
2019-04-07T01:31:19.792Z,12.00
2019-04-07T01:33:23.533Z,12.00
2019-04-07T01:35:26.770Z,11.90
2019-04-07T01:37:30.722Z,11.90
2019-04-07T01:39:34.854Z,11.90
2019-04-07T01:42:13.395Z,11.90
2019-04-07T01:44:21.082Z,11.80
2019-04-07T01:46:29.780Z,11.80
2019-04-07T01:48:45.761Z,11.80
2019-04-07T01:51:10.368Z,11.80
2019-04-07T01:53:24.455Z,11.80
2019-04-07T01:56:05.387Z,11.70
2019-04-07T01:58:14.196Z,11.70
2019-04-07T02:00:22.916Z,11.70
2019-04-07T02:02:35.579Z,11.70
2019-04-07T02:04:45.923Z,11.70
2019-04-07T02:07:03.959Z,11.60
2019-04-07T02:10:12.071Z,11.60
2019-04-07T02:12:24.832Z,11.60
2019-04-07T02:14:53.276Z,11.60
2019-04-07T02:18:03.949Z,11.50
2019-04-07T02:20:13.348Z,11.50
2019-04-07T02:22:22.330Z,11.50
2019-04-07T02:24:37.227Z,11.40
2019-04-07T02:26:46.424Z,11.40
2019-04-07T02:28:54.750Z,11.40
2019-04-07T02:31:17.544Z,11.40
2019-04-07T02:33:31.031Z,11.30
2019-04-07T02:35:43.972Z,11.40
2019-04-07T02:37:55.653Z,11.40
2019-04-07T02:40:06.223Z,11.40
2019-04-07T02:42:13.079Z,11.40
2019-04-07T02:44:20.666Z,11.30
2019-04-07T02:46:29.534Z,11.40
2019-04-07T02:48:41.322Z,11.30
2019-04-07T02:52:53.457Z,11.30
2019-04-07T02:55:05.011Z,11.30
2019-04-07T02:57:14.191Z,11.30
2019-04-07T02:59:40.132Z,11.20
2019-04-07T03:01:44.131Z,11.10
2019-04-07T03:03:54.361Z,11.10
2019-04-07T03:06:01.989Z,11.10
2019-04-07T03:08:12.095Z,11.00
2019-04-07T03:10:25.095Z,11.00
2019-04-07T03:12:53.118Z,11.00
2019-04-07T03:15:02.963Z,10.90
2019-04-07T03:17:11.941Z,10.90
2019-04-07T03:19:23.386Z,10.80
2019-04-07T03:21:32.970Z,10.80
2019-04-07T03:23:41.876Z,10.70
2019-04-07T03:25:49.608Z,10.70
2019-04-07T03:28:04.695Z,10.70
2019-04-07T03:30:20.799Z,10.60
2019-04-07T03:32:28.111Z,10.50
2019-04-07T03:34:36.538Z,10.50
2019-04-07T03:37:15.137Z,10.40
2019-04-07T03:39:03.450Z,10.40
2019-04-07T03:41:12.007Z,10.30
2019-04-07T03:43:19.711Z,10.30
2019-04-07T03:45:33.864Z,10.20
2019-04-07T03:47:44.045Z,10.20
2019-04-07T03:49:59.620Z,10.10
2019-04-07T03:52:22.336Z,10.00
2019-04-07T03:54:31.650Z,10.00
2019-04-07T03:56:53.888Z,9.90
2019-04-07T03:59:03.410Z,9.90
2019-04-07T04:01:13.798Z,9.80
2019-04-07T04:03:21.162Z,9.80
2019-04-07T04:05:29.809Z,9.80
2019-04-07T04:07:40.272Z,9.80
2019-04-07T04:09:50.394Z,9.80
2019-04-07T04:12:01.288Z,9.80
2019-04-07T04:14:09.725Z,9.70
2019-04-07T04:16:18.245Z,9.70
2019-04-07T04:18:22.502Z,9.60
2019-04-07T04:20:25.300Z,9.60
2019-04-07T04:22:29.227Z,9.60
2019-04-07T04:24:32.217Z,9.60
2019-04-07T04:26:36.031Z,9.60
2019-04-07T04:28:39.181Z,9.60
2019-04-07T04:30:42.636Z,9.60
2019-04-07T04:32:46.415Z,9.50
2019-04-07T04:34:49.653Z,9.50
2019-04-07T04:36:54.291Z,9.50
2019-04-07T04:38:56.532Z,9.40
2019-04-07T04:41:01.327Z,9.40
2019-04-07T04:43:04.775Z,9.40
2019-04-07T04:45:10.328Z,9.30
2019-04-07T04:47:12.906Z,9.30
2019-04-07T04:49:16.988Z,9.30
2019-04-07T04:51:20.069Z,9.20
2019-04-07T04:53:24.190Z,9.20
2019-04-07T04:55:27.365Z,9.30
2019-04-07T04:57:31.897Z,9.20
2019-04-07T04:59:35.311Z,9.20
2019-04-07T05:01:38.800Z,9.20
2019-04-07T05:03:42.877Z,9.30
2019-04-07T05:05:46.883Z,9.30
2019-04-07T05:07:57.802Z,9.20
2019-04-07T05:09:55.177Z,9.30
2019-04-07T05:11:56.515Z,9.30
2019-04-07T05:14:00.283Z,9.30
2019-04-07T05:16:03.766Z,9.30
2019-04-07T05:18:06.837Z,9.30
2019-04-07T05:20:10.927Z,9.30
2019-04-07T05:22:13.731Z,9.30
2019-04-07T05:24:17.138Z,9.40
2019-04-07T05:26:21.070Z,9.40
2019-04-07T05:28:24.432Z,9.40
2019-04-07T05:30:28.212Z,9.50
2019-04-07T05:32:31.113Z,9.50
2019-04-07T05:34:34.551Z,9.50
2019-04-07T05:36:42.162Z,9.60
2019-04-07T05:38:49.963Z,9.60
2019-04-07T05:40:53.704Z,9.60
2019-04-07T05:42:56.984Z,9.60
2019-04-07T05:45:00.636Z,9.70
2019-04-07T05:47:04.192Z,9.80
2019-04-07T05:49:08.266Z,9.80
2019-04-07T05:51:12.197Z,9.80
2019-04-07T05:53:15.847Z,9.80
2019-04-07T05:55:22.514Z,9.90
2019-04-07T05:57:22.050Z,9.90
2019-04-07T05:59:25.590Z,9.90
2019-04-07T06:01:28.989Z,9.90
2019-04-07T06:03:32.965Z,10.00
2019-04-07T06:05:35.861Z,10.00
2019-04-07T06:07:39.260Z,10.10
2019-04-07T06:09:42.719Z,10.10
2019-04-07T06:11:46.442Z,10.20
2019-04-07T06:13:50.519Z,10.20
2019-04-07T06:15:54.048Z,10.20
2019-04-07T06:18:00.611Z,10.30
2019-04-07T06:20:00.504Z,10.20
2019-04-07T06:22:04.630Z,10.20
2019-04-07T06:24:07.933Z,10.20
2019-04-07T06:26:11.875Z,10.20
2019-04-07T06:28:18.104Z,10.20
2019-04-07T06:30:18.561Z,10.30
2019-04-07T06:32:21.878Z,10.30
2019-04-07T06:34:25.000Z,10.30
2019-04-07T06:36:28.759Z,10.30
2019-04-07T06:38:34.883Z,10.30
2019-04-07T06:40:35.291Z,10.30
2019-04-07T06:42:38.806Z,10.30
2019-04-07T06:44:42.167Z,10.30
2019-04-07T06:46:53.715Z,10.30
2019-04-07T06:50:05.522Z,10.30
2019-04-07T06:52:13.851Z,10.40
2019-04-07T06:54:31.927Z,10.60
2019-04-07T06:56:41.100Z,10.70
2019-04-07T06:58:51.619Z,10.80
2019-04-07T07:01:03.063Z,10.90
2019-04-07T07:03:09.285Z,10.90
2019-04-07T07:06:17.352Z,11.00
2019-04-07T07:08:26.733Z,11.20
2019-04-07T07:10:38.960Z,11.20
2019-04-07T07:13:09.558Z,11.20
2019-04-07T07:15:12.892Z,11.30
2019-04-07T07:17:25.751Z,11.40
2019-04-07T07:19:36.308Z,11.40
2019-04-07T07:21:44.814Z,11.40
2019-04-07T07:23:51.305Z,11.40
2019-04-07T07:26:01.013Z,11.40
2019-04-07T07:28:02.281Z,11.50
2019-04-07T07:30:08.997Z,11.50
2019-04-07T07:32:15.928Z,11.60
2019-04-07T07:34:18.823Z,11.60
2019-04-07T07:36:23.755Z,11.60
2019-04-07T07:38:32.086Z,11.70
2019-04-07T07:40:34.962Z,11.70
2019-04-07T07:42:37.776Z,11.80
2019-04-07T07:44:42.765Z,11.90
2019-04-07T07:46:49.139Z,12.00
2019-04-07T07:48:51.130Z,12.00
2019-04-07T07:50:54.666Z,12.10
2019-04-07T07:52:58.206Z,12.10
2019-04-07T07:55:02.765Z,12.30
2019-04-07T07:57:04.997Z,12.40
2019-04-07T07:59:12.308Z,12.40
2019-04-07T08:01:17.775Z,12.50
2019-04-07T08:03:22.614Z,12.50
2019-04-07T08:05:29.820Z,12.60
2019-04-07T08:07:30.152Z,12.60
2019-04-07T08:09:33.553Z,12.70
2019-04-07T08:11:37.659Z,12.70
2019-04-07T08:13:44.532Z,12.80
2019-04-07T08:15:45.862Z,12.80
2019-04-07T08:17:50.010Z,12.90
2019-04-07T08:19:54.602Z,12.90
2019-04-07T08:21:59.617Z,13.10
2019-04-07T08:24:03.665Z,13.10
2019-04-07T08:26:07.149Z,13.20
2019-04-07T08:28:10.743Z,13.30
2019-04-07T08:30:14.688Z,13.30
2019-04-07T08:32:18.723Z,13.40
2019-04-07T08:34:22.169Z,13.50
2019-04-07T08:36:25.962Z,13.60
2019-04-07T08:38:29.262Z,13.70
2019-04-07T08:40:32.781Z,13.70
2019-04-07T08:42:36.996Z,13.80
2019-04-07T08:44:40.768Z,13.90
2019-04-07T08:46:44.442Z,14.00
2019-04-07T08:48:49.717Z,14.00
2019-04-07T08:50:51.751Z,14.10
2019-04-07T08:52:55.355Z,14.20
2019-04-07T08:54:58.191Z,14.30
2019-04-07T08:57:01.940Z,14.30
2019-04-07T08:59:07.877Z,14.40
2019-04-07T09:01:09.709Z,14.40
2019-04-07T09:03:15.114Z,14.50
2019-04-07T09:05:20.631Z,14.60
2019-04-07T09:07:22.486Z,14.70
2019-04-07T09:09:32.526Z,14.70
2019-04-07T09:11:28.208Z,14.80
2019-04-07T09:13:33.658Z,14.80
2019-04-07T09:15:44.689Z,14.90
2019-04-07T09:17:50.904Z,14.90
2019-04-07T09:20:08.492Z,15.00
2019-04-07T09:22:22.175Z,15.10
2019-04-07T09:24:43.987Z,15.20
2019-04-07T09:26:52.348Z,15.30
2019-04-07T09:29:00.796Z,15.30
2019-04-07T09:31:11.830Z,15.40
2019-04-07T09:33:22.718Z,15.50
2019-04-07T09:35:31.138Z,15.50
2019-04-07T09:41:54.730Z,15.70
2019-04-07T09:44:01.540Z,15.70
2019-04-07T09:46:10.352Z,15.80
2019-04-07T09:48:50.047Z,15.90
2019-04-07T09:51:06.875Z,16.00
2019-04-07T09:53:17.078Z,16.10
2019-04-07T09:55:29.980Z,16.10
2019-04-07T09:57:41.929Z,16.20
2019-04-07T09:59:56.498Z,16.20
2019-04-07T10:02:35.771Z,16.20
2019-04-07T10:04:44.641Z,16.30
2019-04-07T10:07:10.889Z,16.40
2019-04-07T10:09:22.956Z,16.50
2019-04-07T10:11:30.701Z,16.50
2019-04-07T10:13:41.344Z,16.60
2019-04-07T10:15:53.220Z,16.60
2019-04-07T10:18:07.726Z,16.70
2019-04-07T10:20:21.950Z,16.80
2019-04-07T10:22:32.995Z,16.80
2019-04-07T10:24:42.704Z,16.90
2019-04-07T10:29:00.399Z,16.90
2019-04-07T10:31:23.728Z,17.00
2019-04-07T10:33:39.283Z,16.90
2019-04-07T10:36:50.927Z,17.00
2019-04-07T10:39:02.015Z,17.10
2019-04-07T10:41:12.902Z,17.20
2019-04-07T10:43:28.166Z,17.30
2019-04-07T10:45:39.516Z,17.30
2019-04-07T10:47:47.997Z,17.40
2019-04-07T10:50:02.470Z,17.40
2019-04-07T10:52:21.766Z,17.50
2019-04-07T10:54:30.505Z,17.60
2019-04-07T10:56:44.069Z,17.60
2019-04-07T10:58:52.823Z,17.60
2019-04-07T11:01:01.304Z,17.70
2019-04-07T11:04:10.636Z,17.80
2019-04-07T11:06:20.572Z,17.70
2019-04-07T11:08:34.100Z,17.80
2019-04-07T11:11:41.509Z,17.90
2019-04-07T11:14:00.890Z,18.00
2019-04-07T11:16:10.830Z,18.00
2019-04-07T11:18:26.672Z,17.90
2019-04-07T11:20:42.311Z,17.90
2019-04-07T11:22:51.015Z,18.00
2019-04-07T11:24:59.180Z,18.10
2019-04-07T11:27:13.151Z,18.10
2019-04-07T11:29:21.118Z,18.20
2019-04-07T11:32:30.809Z,18.30
2019-04-07T11:34:39.057Z,18.30
2019-04-07T11:36:49.843Z,18.40
2019-04-07T11:38:58.524Z,18.50
2019-04-07T11:41:07.759Z,18.50
2019-04-07T11:43:15.492Z,18.60
2019-04-07T11:45:26.960Z,18.60
2019-04-07T11:47:51.224Z,18.60
2019-04-07T11:50:00.279Z,18.70
2019-04-07T11:52:08.496Z,18.70
2019-04-07T11:54:18.228Z,18.80
2019-04-07T11:56:35.208Z,18.90
2019-04-07T11:58:44.063Z,18.90
2019-04-07T12:00:54.484Z,19.00
2019-04-07T12:03:03.955Z,19.00
2019-04-07T12:05:11.741Z,19.00
2019-04-07T12:07:21.876Z,19.10
2019-04-07T12:09:28.373Z,19.10
2019-04-07T12:12:10.538Z,19.20
2019-04-07T12:14:23.323Z,19.20
2019-04-07T12:16:35.143Z,19.30
2019-04-07T12:18:44.075Z,19.30
2019-04-07T12:21:00.891Z,19.30
2019-04-07T12:23:09.320Z,19.40
2019-04-07T12:27:22.534Z,19.40
2019-04-07T12:31:40.402Z,19.50
2019-04-07T12:33:48.644Z,19.70
2019-04-07T12:38:02.783Z,19.70
2019-04-07T12:40:22.323Z,19.80
2019-04-07T12:42:28.841Z,20.00
2019-04-07T12:44:38.637Z,20.00
2019-04-07T12:46:53.999Z,20.10
2019-04-07T12:49:09.683Z,20.20
2019-04-07T12:51:53.064Z,20.30
2019-04-07T12:53:58.577Z,20.30
2019-04-07T12:56:08.082Z,20.50
2019-04-07T12:58:24.468Z,20.40
2019-04-07T13:00:39.087Z,20.40
2019-04-07T13:02:45.289Z,20.50
2019-04-07T13:04:51.637Z,20.60
2019-04-07T13:07:58.648Z,20.60
2019-04-07T13:10:10.427Z,20.80
2019-04-07T13:12:24.598Z,20.70
2019-04-07T13:14:29.886Z,20.80
2019-04-07T13:16:41.647Z,20.80
2019-04-07T13:19:04.629Z,20.90
2019-04-07T13:21:12.040Z,21.00
2019-04-07T13:23:19.691Z,20.80
2019-04-07T13:25:31.124Z,20.80
2019-04-07T13:27:39.122Z,20.90
2019-04-07T13:29:48.219Z,20.90
2019-04-07T13:33:03.220Z,21.00
2019-04-07T13:35:10.704Z,21.10
2019-04-07T13:37:20.020Z,21.10
2019-04-07T13:39:27.936Z,21.00
2019-04-07T13:41:44.350Z,21.20
2019-04-07T13:43:48.614Z,21.10
2019-04-07T13:46:35.985Z,21.20
2019-04-07T13:48:49.627Z,21.30
2019-04-07T13:51:25.031Z,21.40
2019-04-07T13:53:41.044Z,21.40
2019-04-07T13:55:55.238Z,21.50
2019-04-07T13:58:04.467Z,21.60
2019-04-07T14:00:46.990Z,21.60
2019-04-07T14:02:53.857Z,21.70
2019-04-07T14:05:09.017Z,21.80
2019-04-07T14:07:19.845Z,21.80
2019-04-07T14:09:31.448Z,21.70
2019-04-07T14:11:56.466Z,21.80
2019-04-07T14:14:53.778Z,21.90
2019-04-07T14:17:36.352Z,21.90
2019-04-07T14:20:48.580Z,22.10
2019-04-07T14:22:56.623Z,22.10
2019-04-07T14:25:03.857Z,22.10
2019-04-07T14:27:12.399Z,22.10
2019-04-07T14:29:20.988Z,22.20
2019-04-07T14:32:32.677Z,22.20
2019-04-07T14:35:39.652Z,22.10
2019-04-07T14:38:05.256Z,22.30
2019-04-07T14:40:16.246Z,22.40
2019-04-07T14:43:27.435Z,22.50
2019-04-07T14:45:44.489Z,22.60
2019-04-07T14:47:52.334Z,22.70
2019-04-07T14:50:03.767Z,23.00
2019-04-07T14:52:15.957Z,23.00
2019-04-07T14:54:24.559Z,23.20
2019-04-07T14:56:40.826Z,23.20
2019-04-07T14:58:53.887Z,23.40
2019-04-07T15:01:05.918Z,23.50
2019-04-07T15:03:07.212Z,23.70
2019-04-07T15:05:15.877Z,23.80
2019-04-07T15:07:23.727Z,24.10
2019-04-07T15:09:32.301Z,24.00
2019-04-07T15:11:42.277Z,24.10
2019-04-07T15:13:47.334Z,24.30
2019-04-07T15:15:51.424Z,24.50
2019-04-07T15:17:54.384Z,24.50
2019-04-07T15:19:58.078Z,24.40
2019-04-07T15:22:02.977Z,24.50
2019-04-07T15:24:07.206Z,24.60
2019-04-07T15:26:11.971Z,24.70
2019-04-07T15:28:13.080Z,24.80
2019-04-07T15:30:16.947Z,24.80
2019-04-07T15:32:24.519Z,24.70
2019-04-07T15:34:24.258Z,24.80
2019-04-07T15:36:28.044Z,24.80
2019-04-07T15:38:31.602Z,24.80
2019-04-07T15:40:36.466Z,25.20
2019-04-07T15:42:43.377Z,25.10
2019-04-07T15:44:42.771Z,25.30
2019-04-07T15:46:51.268Z,25.50
2019-04-07T15:48:49.874Z,25.90
2019-04-07T15:50:54.034Z,26.10
2019-04-07T15:52:56.656Z,26.60
2019-04-07T15:55:00.660Z,26.90
2019-04-07T15:57:03.717Z,27.20
2019-04-07T15:59:07.591Z,27.30
2019-04-07T16:01:11.742Z,27.20
2019-04-07T16:03:15.700Z,27.50
2019-04-07T16:05:17.870Z,27.60
2019-04-07T16:07:21.391Z,27.40
2019-04-07T16:09:36.130Z,27.20
2019-04-07T16:11:30.298Z,26.80
2019-04-07T16:13:31.843Z,26.70
2019-04-07T16:15:36.111Z,26.30
2019-04-07T16:17:39.023Z,26.50
2019-04-07T16:19:45.408Z,26.70
2019-04-07T16:21:46.222Z,26.60
2019-04-07T16:23:52.846Z,26.60
2019-04-07T16:25:57.512Z,26.50
2019-04-07T16:27:57.093Z,26.10
2019-04-07T16:30:01.223Z,26.00
2019-04-07T16:32:04.162Z,26.00
2019-04-07T16:34:08.845Z,25.70
2019-04-07T16:36:11.004Z,25.70
2019-04-07T16:38:15.175Z,25.50
2019-04-07T16:40:18.484Z,25.50
2019-04-07T16:42:21.463Z,25.60
2019-04-07T16:44:24.890Z,25.60
2019-04-07T16:46:28.346Z,25.50
2019-04-07T16:48:36.025Z,25.40
2019-04-07T16:50:35.452Z,25.50
2019-04-07T16:52:39.561Z,25.50
2019-04-07T16:54:43.759Z,25.60
2019-04-07T16:56:45.859Z,25.70
2019-04-07T16:58:50.163Z,25.50
2019-04-07T17:00:53.601Z,25.50
2019-04-07T17:02:56.904Z,25.30
2019-04-07T17:05:00.420Z,25.10
2019-04-07T17:07:05.326Z,25.00
2019-04-07T17:09:08.718Z,24.90
2019-04-07T17:11:11.748Z,24.80
2019-04-07T17:13:20.493Z,24.70
2019-04-07T17:15:19.131Z,24.60
2019-04-07T17:17:23.037Z,24.30
2019-04-07T17:19:26.770Z,23.90
2019-04-07T17:21:29.859Z,23.70
2019-04-07T17:23:33.484Z,23.60
2019-04-07T17:25:36.420Z,23.10
2019-04-07T17:27:42.231Z,23.10
2019-04-07T17:29:43.720Z,23.00
2019-04-07T17:31:46.825Z,22.90
2019-04-07T17:33:50.911Z,22.80
2019-04-07T17:35:54.278Z,22.50
2019-04-07T17:38:02.682Z,22.40
2019-04-07T17:40:08.680Z,22.20
2019-04-07T17:42:12.541Z,21.90
2019-04-07T17:44:24.626Z,21.80
2019-04-07T17:46:32.496Z,21.60
2019-04-07T17:48:44.914Z,21.40
2019-04-07T17:50:48.553Z,21.30
2019-04-07T17:53:14.929Z,21.20
2019-04-07T17:55:21.892Z,21.10
2019-04-07T17:57:37.362Z,21.00
2019-04-07T18:00:02.343Z,20.90
2019-04-07T18:02:17.836Z,20.80
2019-04-07T18:04:27.150Z,20.60
2019-04-07T18:06:37.208Z,20.50
2019-04-07T18:09:51.341Z,20.40
2019-04-07T18:12:14.119Z,20.30
2019-04-07T18:15:24.310Z,20.40
2019-04-07T18:17:41.907Z,20.20
2019-04-07T18:19:48.410Z,20.10
2019-04-07T18:21:58.028Z,20.10
2019-04-07T18:24:13.730Z,20.00
2019-04-07T18:26:24.120Z,20.00
2019-04-07T18:28:34.737Z,19.90
2019-04-07T18:31:03.062Z,19.90
2019-04-07T18:33:09.825Z,19.80
2019-04-07T18:35:21.533Z,19.70
2019-04-07T18:37:32.308Z,19.60
2019-04-07T18:39:40.010Z,19.50
2019-04-07T18:41:49.370Z,19.40
2019-04-07T18:44:59.545Z,19.30
2019-04-07T18:47:08.589Z,19.20
2019-04-07T18:49:35.469Z,19.10
2019-04-07T18:51:47.167Z,18.90
2019-04-07T18:53:58.536Z,18.90
2019-04-07T18:56:03.501Z,18.90
2019-04-07T18:58:48.665Z,18.80
2019-04-07T19:01:10.209Z,18.80
2019-04-07T19:03:32.936Z,18.80
2019-04-07T19:05:43.727Z,18.80
2019-04-07T19:07:58.364Z,18.80
2019-04-07T19:10:17.611Z,18.70
2019-04-07T19:12:23.125Z,18.70
2019-04-07T19:14:45.358Z,18.70
2019-04-07T19:16:49.985Z,18.70
2019-04-07T19:20:56.372Z,18.60
2019-04-07T19:23:07.784Z,18.60
2019-04-07T19:27:22.007Z,18.50
2019-04-07T19:30:31.472Z,18.50
2019-04-07T19:32:41.036Z,18.30
2019-04-07T19:34:53.051Z,18.20
2019-04-07T19:37:01.882Z,18.20
2019-04-07T19:39:11.294Z,18.10
2019-04-07T19:41:55.134Z,18.10
2019-04-07T19:44:13.731Z,18.00
2019-04-07T19:47:23.178Z,17.90
2019-04-07T19:49:34.964Z,17.90
2019-04-07T19:51:51.489Z,17.80
2019-04-07T19:54:00.659Z,17.70
2019-04-07T19:56:39.159Z,17.70
2019-04-07T19:58:51.353Z,17.70
2019-04-07T20:01:01.589Z,17.60
2019-04-07T20:03:14.468Z,17.50
2019-04-07T20:05:25.372Z,17.40
2019-04-07T20:07:33.162Z,17.40
2019-04-07T20:10:42.543Z,17.30
2019-04-07T20:12:52.006Z,17.20
2019-04-07T20:15:06.565Z,17.10
2019-04-07T20:19:10.933Z,17.10
2019-04-07T20:21:34.803Z,17.00
2019-04-07T20:23:47.856Z,17.00
2019-04-07T20:25:57.773Z,16.90
2019-04-07T20:28:07.233Z,16.90
2019-04-07T20:32:21.250Z,16.90
2019-04-07T20:34:30.821Z,16.80
2019-04-07T20:36:54.901Z,16.70
2019-04-07T20:39:03.993Z,16.70
2019-04-07T20:42:17.125Z,16.70
2019-04-07T20:45:02.754Z,16.60
2019-04-07T20:47:05.504Z,16.60
2019-04-07T20:49:20.005Z,16.60
2019-04-07T20:51:29.606Z,16.50
2019-04-07T20:53:40.869Z,16.40
2019-04-07T20:57:54.027Z,16.40
2019-04-07T21:00:03.696Z,16.40
2019-04-07T21:02:12.699Z,16.30
2019-04-07T21:04:37.838Z,16.30
2019-04-07T21:06:50.798Z,16.20
2019-04-07T21:09:02.769Z,16.20
2019-04-07T21:11:13.137Z,16.20
2019-04-07T21:14:29.086Z,16.20
2019-04-07T21:17:41.636Z,16.10
2019-04-07T21:19:52.217Z,16.10
2019-04-07T21:22:01.307Z,16.10
2019-04-07T21:24:12.377Z,16.10
2019-04-07T21:26:27.552Z,16.10
2019-04-07T21:28:39.009Z,16.00
2019-04-07T21:31:20.002Z,16.00
2019-04-07T21:33:29.645Z,16.00
2019-04-07T21:37:45.076Z,15.90
2019-04-07T21:39:49.085Z,15.90
2019-04-07T21:42:05.673Z,15.90
2019-04-07T21:44:14.393Z,15.80
2019-04-07T21:46:24.797Z,15.80
2019-04-07T21:50:38.400Z,15.70
2019-04-07T21:52:43.945Z,15.70
2019-04-07T21:55:03.360Z,15.50
2019-04-07T21:57:17.360Z,15.50
2019-04-07T21:59:28.562Z,15.50
2019-04-07T22:01:38.425Z,15.50
2019-04-07T22:03:49.645Z,15.40
2019-04-07T22:05:58.104Z,15.40
2019-04-07T22:08:12.867Z,15.30
2019-04-07T22:10:11.572Z,15.20
2019-04-07T22:12:14.752Z,15.20
2019-04-07T22:14:18.860Z,15.10
2019-04-07T22:16:23.910Z,14.90
2019-04-07T22:18:25.699Z,14.80
2019-04-07T22:20:29.287Z,14.70
2019-04-07T22:22:33.171Z,14.50
2019-04-07T22:24:37.010Z,14.40
2019-04-07T22:26:39.127Z,14.40
2019-04-07T22:28:42.606Z,14.30
2019-04-07T22:30:46.703Z,14.20
2019-04-07T22:32:51.301Z,14.10
2019-04-07T22:34:53.288Z,14.10
2019-04-07T22:36:56.750Z,14.10
2019-04-07T22:39:02.367Z,14.10
2019-04-07T22:41:06.699Z,14.00
2019-04-07T22:43:07.222Z,13.90
2019-04-07T22:45:11.624Z,13.90
2019-04-07T22:47:15.803Z,13.90
2019-04-07T22:49:17.770Z,13.80
2019-04-07T22:51:21.176Z,13.70
2019-04-07T22:53:27.428Z,13.60
2019-04-07T22:55:29.104Z,13.60
2019-04-07T22:57:31.508Z,13.50
2019-04-07T22:59:35.056Z,13.60
2019-04-07T23:01:38.981Z,13.50
2019-04-07T23:03:42.036Z,13.50
2019-04-07T23:05:45.874Z,13.50
2019-04-07T23:07:48.943Z,13.40
2019-04-07T23:09:52.385Z,13.40
2019-04-07T23:11:56.608Z,13.30
2019-04-07T23:13:59.308Z,13.30
2019-04-07T23:16:11.907Z,13.30
2019-04-07T23:18:06.218Z,13.30
2019-04-07T23:20:09.974Z,13.20
2019-04-07T23:22:13.887Z,13.20
2019-04-07T23:24:17.152Z,13.20
2019-04-07T23:26:20.213Z,13.20
2019-04-07T23:28:23.580Z,13.10
2019-04-07T23:30:27.819Z,13.10
2019-04-07T23:32:31.152Z,13.10
2019-04-07T23:34:34.945Z,13.00
2019-04-07T23:36:38.237Z,13.00
2019-04-07T23:38:41.561Z,13.00
2019-04-07T23:40:51.554Z,13.00
2019-04-07T23:42:55.118Z,12.90
2019-04-07T23:44:58.639Z,12.90
2019-04-07T23:47:02.556Z,12.90
2019-04-07T23:49:05.750Z,12.80
2019-04-07T23:51:08.844Z,12.70
2019-04-07T23:53:17.680Z,12.70
2019-04-07T23:55:21.866Z,12.60
2019-04-07T23:57:24.717Z,12.50
2019-04-07T23:59:28.148Z,12.50
